createdAt,value
2023-06-14T00:00:16.687Z,11.83
2023-06-14T00:02:43.736Z,11.97
2023-06-14T00:05:13.326Z,10.93
2023-06-14T00:07:44.940Z,13.60
2023-06-14T00:10:13.090Z,18.80
2023-06-14T00:12:40.186Z,13.90
2023-06-14T00:15:08.346Z,14.97
2023-06-14T00:17:35.548Z,12.33
2023-06-14T00:20:05.949Z,14.87
2023-06-14T00:22:34.088Z,14.60
2023-06-14T00:25:08.243Z,14.27
2023-06-14T00:27:38.217Z,11.17
2023-06-14T00:30:05.435Z,8.57
2023-06-14T00:32:32.160Z,7.60
2023-06-14T00:34:59.214Z,11.77
2023-06-14T00:37:25.828Z,7.50
2023-06-14T00:39:52.704Z,7.30
2023-06-14T00:42:29.035Z,8.10
2023-06-14T00:44:56.491Z,6.60
2023-06-14T00:47:23.700Z,6.67
2023-06-14T00:49:54.601Z,9.50
2023-06-14T00:52:21.977Z,8.10
2023-06-14T00:54:48.585Z,6.30
2023-06-14T00:57:17.889Z,7.30
2023-06-14T00:59:46.898Z,7.40
2023-06-14T01:02:16.434Z,7.50
2023-06-14T01:04:46.802Z,6.80
2023-06-14T01:07:23.647Z,8.17
2023-06-14T01:10:22.344Z,8.43
2023-06-14T01:12:54.120Z,6.90
2023-06-14T01:15:22.533Z,6.00
2023-06-14T01:17:52.900Z,8.07
2023-06-14T01:20:23.068Z,5.50
2023-06-14T01:22:56.378Z,8.07
2023-06-14T01:25:24.758Z,6.47
2023-06-14T01:27:54.742Z,13.67
2023-06-14T01:30:23.904Z,8.97
2023-06-14T01:32:51.823Z,9.00
2023-06-14T01:35:19.288Z,8.43
2023-06-14T01:37:49.370Z,12.03
2023-06-14T01:40:17.913Z,11.67
2023-06-14T01:42:47.514Z,11.03
2023-06-14T01:45:15.766Z,11.00
2023-06-14T01:47:43.071Z,6.63
2023-06-14T01:50:10.231Z,9.20
2023-06-14T01:52:38.533Z,8.47
2023-06-14T01:55:06.502Z,5.77
2023-06-14T01:57:33.164Z,7.50
2023-06-14T01:59:59.782Z,6.43
2023-06-14T02:02:26.470Z,8.20
2023-06-14T02:04:53.548Z,7.07
2023-06-14T02:07:20.184Z,8.53
2023-06-14T02:09:46.825Z,7.73
2023-06-14T02:12:13.538Z,7.27
2023-06-14T02:14:40.380Z,6.57
2023-06-14T02:17:07.702Z,6.10
2023-06-14T02:19:34.678Z,11.40
2023-06-14T02:22:01.546Z,9.13
2023-06-14T02:24:28.590Z,7.00
2023-06-14T02:26:55.503Z,10.47
2023-06-14T02:29:22.308Z,9.20
2023-06-14T02:31:49.847Z,9.30
2023-06-14T02:34:19.068Z,17.17
2023-06-14T02:36:46.780Z,18.13
2023-06-14T02:39:13.999Z,10.77
2023-06-14T02:41:41.189Z,16.43
2023-06-14T02:44:08.151Z,11.37
2023-06-14T02:46:35.285Z,7.53
2023-06-14T02:49:02.042Z,12.37
2023-06-14T02:51:28.829Z,10.27
2023-06-14T02:53:55.532Z,8.20
2023-06-14T02:56:23.948Z,11.23
2023-06-14T02:58:50.577Z,7.63
2023-06-14T03:01:18.308Z,12.07
2023-06-14T03:03:45.163Z,9.20
2023-06-14T03:06:14.586Z,7.47
2023-06-14T03:08:42.898Z,6.13
2023-06-14T03:11:10.135Z,8.30
2023-06-14T03:13:36.807Z,6.33
2023-06-14T03:16:03.683Z,6.40
2023-06-14T03:18:36.780Z,5.30
2023-06-14T03:21:04.285Z,8.10
2023-06-14T03:23:31.284Z,8.20
2023-06-14T03:25:58.263Z,9.47
2023-06-14T03:28:24.878Z,8.17
2023-06-14T03:30:51.519Z,7.10
2023-06-14T03:33:18.253Z,5.40
2023-06-14T03:35:45.641Z,6.80
2023-06-14T03:38:12.261Z,8.63
2023-06-14T03:40:38.887Z,4.97
2023-06-14T03:43:05.672Z,6.87
2023-06-14T03:45:32.353Z,7.20
2023-06-14T03:47:59.794Z,6.90
2023-06-14T03:50:26.451Z,6.67
2023-06-14T03:52:53.696Z,5.63
2023-06-14T03:57:49.894Z,5.47
2023-06-14T04:00:17.013Z,6.50
2023-06-14T04:02:45.539Z,8.87
2023-06-14T04:05:12.775Z,7.23
2023-06-14T04:07:46.010Z,7.60
2023-06-14T04:10:14.557Z,4.53
2023-06-14T04:12:43.848Z,7.23
2023-06-14T04:15:20.862Z,6.50
2023-06-14T04:17:48.790Z,7.10
2023-06-14T04:20:15.649Z,6.07
2023-06-14T04:22:42.420Z,7.03
2023-06-14T04:25:09.337Z,5.40
2023-06-14T04:27:37.731Z,5.80
2023-06-14T04:30:04.916Z,9.07
2023-06-14T04:32:35.022Z,7.40
2023-06-14T04:35:05.060Z,7.30
2023-06-14T04:37:31.802Z,5.43
2023-06-14T04:39:59.591Z,8.40
2023-06-14T04:42:31.210Z,9.00
2023-06-14T04:44:58.495Z,9.00
2023-06-14T04:47:30.882Z,8.30
2023-06-14T04:50:01.899Z,5.50
2023-06-14T04:52:30.908Z,8.37
2023-06-14T04:54:57.866Z,7.47
2023-06-14T04:57:26.664Z,4.80
2023-06-14T04:59:56.795Z,7.47
2023-06-14T05:02:27.121Z,11.83
2023-06-14T05:04:54.865Z,6.73
2023-06-14T05:07:21.539Z,6.27
2023-06-14T05:09:48.147Z,6.97
2023-06-14T05:12:14.964Z,7.10
2023-06-14T05:14:41.561Z,11.97
2023-06-14T05:17:08.407Z,6.57
2023-06-14T05:19:35.060Z,6.00
2023-06-14T05:22:01.744Z,8.87
2023-06-14T05:24:29.789Z,9.67
2023-06-14T05:26:56.518Z,10.60
2023-06-14T05:29:23.279Z,8.40
2023-06-14T05:31:50.065Z,11.97
2023-06-14T05:34:16.716Z,6.07
2023-06-14T05:36:43.367Z,7.33
2023-06-14T05:39:10.618Z,6.13
2023-06-14T05:41:37.233Z,7.20
2023-06-14T05:44:03.974Z,9.33
2023-06-14T05:46:30.857Z,12.63
2023-06-14T05:48:57.655Z,7.27
2023-06-14T05:51:26.590Z,5.93
2023-06-14T05:53:53.949Z,8.17
2023-06-14T05:56:20.705Z,9.10
2023-06-14T05:58:48.028Z,9.47
2023-06-14T06:01:15.031Z,7.90
2023-06-14T06:03:42.807Z,7.33
2023-06-14T06:06:13.257Z,7.77
2023-06-14T06:08:40.154Z,8.33
2023-06-14T06:11:06.723Z,9.17
2023-06-14T06:13:33.907Z,12.63
2023-06-14T06:16:00.768Z,7.50
2023-06-14T06:18:27.445Z,14.63
2023-06-14T06:20:54.542Z,6.40
2023-06-14T06:23:21.653Z,8.00
2023-06-14T06:25:48.299Z,9.40
2023-06-14T06:28:14.900Z,9.13
2023-06-14T06:30:41.920Z,19.23
2023-06-14T06:33:08.757Z,6.10
2023-06-14T06:35:35.533Z,8.90
2023-06-14T06:38:02.446Z,10.13
2023-06-14T06:40:29.233Z,7.63
2023-06-14T06:42:56.141Z,9.07
2023-06-14T06:45:25.743Z,6.93
2023-06-14T06:47:53.140Z,10.03
2023-06-14T06:50:21.256Z,8.87
2023-06-14T06:52:48.161Z,8.77
2023-06-14T06:55:15.417Z,9.50
2023-06-14T06:57:42.359Z,6.93
2023-06-14T07:00:10.894Z,10.73
2023-06-14T07:02:38.270Z,7.30
2023-06-14T07:05:06.055Z,6.07
2023-06-14T07:07:33.070Z,8.20
2023-06-14T07:10:00.098Z,6.13
2023-06-14T07:12:27.022Z,7.60
2023-06-14T07:14:53.806Z,2.30
2023-06-14T07:17:20.672Z,5.60
2023-06-14T07:19:47.389Z,5.10
2023-06-14T07:22:14.090Z,4.00
2023-06-14T07:24:41.861Z,5.43
2023-06-14T07:27:09.226Z,7.50
2023-06-14T07:29:36.377Z,4.53
2023-06-14T07:32:03.063Z,5.43
2023-06-14T07:34:29.694Z,9.77
2023-06-14T07:36:56.814Z,3.73
2023-06-14T07:39:23.524Z,6.20
2023-06-14T07:41:50.473Z,3.93
2023-06-14T07:44:17.412Z,7.37
2023-06-14T07:46:44.594Z,5.17
2023-06-14T07:49:11.518Z,9.87
2023-06-14T07:51:39.145Z,4.73
2023-06-14T07:54:08.383Z,6.97
2023-06-14T07:56:35.136Z,3.67
2023-06-14T07:59:02.477Z,5.37
2023-06-14T08:01:29.405Z,6.60
2023-06-14T08:03:56.456Z,4.60
2023-06-14T08:06:23.633Z,5.90
2023-06-14T08:08:50.344Z,5.30
2023-06-14T08:11:17.374Z,5.73
2023-06-14T08:13:43.985Z,3.00
2023-06-14T08:16:10.837Z,4.47
2023-06-14T08:18:37.475Z,4.50
2023-06-14T08:21:04.210Z,2.60
2023-06-14T08:23:30.910Z,5.13
2023-06-14T08:25:57.656Z,4.83
2023-06-14T08:28:25.718Z,8.40
2023-06-14T08:30:52.421Z,3.33
2023-06-14T08:33:19.117Z,6.60
2023-06-14T08:35:46.374Z,10.13
2023-06-14T08:38:13.577Z,7.57
2023-06-14T08:40:43.661Z,4.33
2023-06-14T08:43:10.804Z,4.27
2023-06-14T08:45:37.809Z,3.97
2023-06-14T08:48:06.813Z,7.97
2023-06-14T08:50:35.809Z,6.07
2023-06-14T08:53:04.929Z,4.67
2023-06-14T08:55:37.148Z,5.40
2023-06-14T08:58:06.363Z,3.80
2023-06-14T09:00:34.728Z,2.73
2023-06-14T09:03:01.990Z,3.23
2023-06-14T09:05:29.818Z,4.13
2023-06-14T09:07:58.156Z,6.07
2023-06-14T09:10:29.055Z,5.53
2023-06-14T09:12:56.587Z,5.90
2023-06-14T09:15:23.694Z,2.40
2023-06-14T09:17:50.556Z,5.63
2023-06-14T09:20:20.564Z,4.27
2023-06-14T09:22:48.003Z,3.97
2023-06-14T09:25:33.312Z,3.17
2023-06-14T09:28:03.433Z,6.10
2023-06-14T09:30:30.128Z,5.43
2023-06-14T09:33:00.158Z,3.80
2023-06-14T09:35:30.916Z,3.47
2023-06-14T09:37:57.689Z,4.83
2023-06-14T09:40:24.715Z,3.07
2023-06-14T09:42:53.388Z,3.93
2023-06-14T09:45:23.096Z,4.90
2023-06-14T09:48:06.150Z,3.20
2023-06-14T09:50:34.642Z,3.20
2023-06-14T09:53:08.485Z,1.87
2023-06-14T09:55:39.653Z,3.20
2023-06-14T09:58:08.761Z,4.40
2023-06-14T10:00:36.481Z,3.23
2023-06-14T10:03:15.559Z,7.57
2023-06-14T10:05:48.214Z,6.83
2023-06-14T10:08:17.714Z,2.13
2023-06-14T10:10:45.543Z,2.13
2023-06-14T10:13:13.194Z,1.77
2023-06-14T10:15:53.376Z,4.50
2023-06-14T10:18:33.258Z,3.40
2023-06-14T10:21:27.798Z,5.70
2023-06-14T10:24:00.893Z,2.60
2023-06-14T10:26:28.039Z,2.40
2023-06-14T10:29:00.904Z,4.67
2023-06-14T10:31:47.175Z,2.80
2023-06-14T10:34:26.132Z,4.10
2023-06-14T10:37:04.144Z,4.93
2023-06-14T10:39:31.468Z,4.10
2023-06-14T10:41:59.093Z,4.40
2023-06-14T10:44:26.162Z,2.20
2023-06-14T10:46:56.687Z,2.33
2023-06-14T10:49:44.234Z,2.17
2023-06-14T10:52:18.285Z,1.97
2023-06-14T10:55:03.145Z,4.83
2023-06-14T10:57:29.801Z,1.90
2023-06-14T10:59:56.652Z,5.80
2023-06-14T11:02:23.333Z,1.83
2023-06-14T11:04:54.143Z,4.57
2023-06-14T11:07:23.701Z,3.23
2023-06-14T11:10:18.469Z,1.60
2023-06-14T11:12:49.083Z,1.87
2023-06-14T11:15:16.331Z,3.73
2023-06-14T11:17:54.639Z,5.17
2023-06-14T11:20:23.325Z,3.70
2023-06-14T11:22:51.191Z,3.17
2023-06-14T11:25:18.357Z,4.17
2023-06-14T11:27:46.077Z,7.50
2023-06-14T11:30:14.390Z,2.63
2023-06-14T11:32:42.062Z,3.33
2023-06-14T11:35:10.440Z,5.40
2023-06-14T11:37:38.405Z,4.60
2023-06-14T11:40:11.151Z,4.43
2023-06-14T11:42:38.550Z,5.90
2023-06-14T11:45:09.942Z,5.33
2023-06-14T11:47:38.123Z,7.07
2023-06-14T11:50:07.108Z,5.13
2023-06-14T11:52:34.112Z,7.47
2023-06-14T11:55:00.950Z,7.37
2023-06-14T11:57:27.568Z,5.50
2023-06-14T11:59:56.139Z,2.20
2023-06-14T12:02:25.184Z,4.43
2023-06-14T12:04:52.179Z,5.17
2023-06-14T12:07:21.352Z,6.70
2023-06-14T12:10:00.189Z,1.83
2023-06-14T12:12:26.950Z,3.17
2023-06-14T12:14:54.639Z,4.93
2023-06-14T12:17:21.543Z,4.53
2023-06-14T12:19:50.405Z,4.93
2023-06-14T12:22:18.266Z,2.00
2023-06-14T12:24:45.873Z,1.87
2023-06-14T12:27:17.189Z,2.40
2023-06-14T12:29:46.591Z,3.97
2023-06-14T12:32:13.441Z,3.07
2023-06-14T12:34:40.275Z,2.70
2023-06-14T12:37:07.777Z,2.17
2023-06-14T12:39:34.871Z,6.07
2023-06-14T12:42:01.849Z,5.67
2023-06-14T12:44:28.827Z,3.20
2023-06-14T12:46:56.054Z,2.37
2023-06-14T12:49:23.250Z,2.00
2023-06-14T12:51:49.855Z,4.47
2023-06-14T12:54:22.931Z,3.87
2023-06-14T12:56:56.252Z,5.30
2023-06-14T12:59:22.916Z,6.23
2023-06-14T13:01:51.940Z,2.43
2023-06-14T13:04:18.578Z,5.20
2023-06-14T13:09:19.329Z,6.10
2023-06-14T13:11:48.284Z,3.27
2023-06-14T13:14:25.193Z,4.73
2023-06-14T13:16:53.055Z,3.53
2023-06-14T13:19:19.841Z,6.10
2023-06-14T13:21:46.576Z,5.80
2023-06-14T13:24:13.410Z,3.93
2023-06-14T13:26:40.077Z,3.30
2023-06-14T13:29:06.718Z,5.73
2023-06-14T13:31:33.860Z,7.03
2023-06-14T13:34:00.528Z,3.00
2023-06-14T13:36:27.251Z,3.43
2023-06-14T13:38:55.998Z,4.53
2023-06-14T13:41:22.658Z,3.67
2023-06-14T13:43:49.322Z,2.87
2023-06-14T13:46:15.980Z,10.50
2023-06-14T13:48:42.888Z,9.07
2023-06-14T13:51:09.561Z,4.77
2023-06-14T13:53:37.391Z,3.93
2023-06-14T13:56:04.273Z,4.70
2023-06-14T13:58:30.907Z,4.43
2023-06-14T14:00:58.375Z,2.50
2023-06-14T14:03:25.874Z,2.50
2023-06-14T14:05:52.936Z,6.13
2023-06-14T14:08:19.549Z,4.17
2023-06-14T14:10:46.709Z,2.50
2023-06-14T14:13:13.809Z,2.50
2023-06-14T14:15:40.566Z,4.93
2023-06-14T14:18:07.503Z,2.63
2023-06-14T14:20:34.263Z,9.53
2023-06-14T14:23:01.397Z,4.47
2023-06-14T14:25:28.138Z,5.03
2023-06-14T14:27:55.071Z,5.30
2023-06-14T14:30:24.832Z,6.53
2023-06-14T14:32:52.704Z,2.83
2023-06-14T14:35:19.519Z,3.97
2023-06-14T14:37:46.443Z,3.77
2023-06-14T14:40:13.731Z,2.53
2023-06-14T14:42:40.725Z,2.93
2023-06-14T14:45:08.019Z,3.07
2023-06-14T14:47:34.789Z,4.50
2023-06-14T14:50:01.536Z,3.97
2023-06-14T14:52:28.279Z,3.97
2023-06-14T14:54:55.185Z,4.53
2023-06-14T14:57:23.202Z,2.53
2023-06-14T14:59:49.826Z,2.80
2023-06-14T15:02:16.980Z,5.37
2023-06-14T15:04:43.660Z,2.93
2023-06-14T15:07:10.622Z,2.53
2023-06-14T15:09:37.317Z,3.90
2023-06-14T15:12:04.356Z,6.40
2023-06-14T15:14:31.266Z,3.90
2023-06-14T15:16:59.346Z,4.87
2023-06-14T15:19:26.108Z,3.70
2023-06-14T15:21:52.740Z,4.07
2023-06-14T15:24:30.336Z,6.00
2023-06-14T15:27:05.237Z,5.03
2023-06-14T15:29:31.859Z,3.13
2023-06-14T15:31:59.382Z,3.87
2023-06-14T15:34:26.045Z,3.80
2023-06-14T15:36:52.729Z,2.80
2023-06-14T15:39:19.341Z,6.10
2023-06-14T15:41:46.037Z,3.50
2023-06-14T15:44:12.682Z,6.97
2023-06-14T15:46:39.370Z,6.90
2023-06-14T15:49:11.412Z,4.70
2023-06-14T15:51:38.451Z,4.53
2023-06-14T15:54:05.108Z,3.07
2023-06-14T15:56:31.845Z,7.03
2023-06-14T15:58:58.906Z,2.83
2023-06-14T16:01:25.635Z,5.20
2023-06-14T16:03:52.608Z,2.60
2023-06-14T16:06:19.322Z,4.10
2023-06-14T16:08:46.877Z,3.80
2023-06-14T16:11:13.494Z,2.57
2023-06-14T16:13:43.045Z,7.43
2023-06-14T16:16:11.195Z,4.33
2023-06-14T16:18:38.103Z,5.80
2023-06-14T16:21:07.236Z,2.70
2023-06-14T16:23:34.420Z,4.07
2023-06-14T16:26:01.082Z,4.93
2023-06-14T16:28:27.691Z,4.00
2023-06-14T16:30:54.364Z,2.90
2023-06-14T16:33:21.126Z,2.53
2023-06-14T16:35:48.287Z,8.50
2023-06-14T16:38:15.193Z,2.53
2023-06-14T16:40:41.884Z,9.47
2023-06-14T16:43:08.691Z,3.33
2023-06-14T16:45:35.409Z,6.63
2023-06-14T16:48:02.217Z,3.47
2023-06-14T16:50:28.991Z,5.53
2023-06-14T16:52:56.273Z,6.13
2023-06-14T16:55:23.020Z,3.00
2023-06-14T16:57:49.669Z,4.23
2023-06-14T17:00:17.027Z,3.13
2023-06-14T17:02:44.543Z,6.90
2023-06-14T17:05:11.241Z,2.93
2023-06-14T17:07:37.897Z,3.00
2023-06-14T17:10:05.359Z,6.23
2023-06-14T17:12:32.037Z,2.90
2023-06-14T17:14:58.669Z,3.30
2023-06-14T17:17:25.371Z,4.17
2023-06-14T17:19:53.607Z,6.93
2023-06-14T17:22:20.907Z,4.70
2023-06-14T17:24:47.691Z,3.70
2023-06-14T17:27:14.419Z,3.27
2023-06-14T17:29:41.065Z,3.40
2023-06-14T17:32:08.301Z,4.37
2023-06-14T17:34:35.688Z,3.93
2023-06-14T17:37:03.050Z,4.13
2023-06-14T17:39:32.468Z,3.47
2023-06-14T17:41:59.091Z,4.70
2023-06-14T17:44:25.985Z,3.10
2023-06-14T17:46:52.660Z,7.70
2023-06-14T17:49:24.450Z,3.17
2023-06-14T17:51:51.128Z,8.10
2023-06-14T17:54:18.165Z,5.37
2023-06-14T17:56:45.077Z,3.53
2023-06-14T17:59:11.804Z,3.27
2023-06-14T18:01:38.501Z,4.33
2023-06-14T18:04:05.604Z,3.47
2023-06-14T18:06:32.325Z,4.87
2023-06-14T18:08:59.376Z,4.43
2023-06-14T18:11:31.802Z,3.30
2023-06-14T18:13:59.568Z,5.73
2023-06-14T18:16:27.346Z,3.77
2023-06-14T18:18:55.114Z,2.63
2023-06-14T18:21:22.501Z,4.63
2023-06-14T18:23:54.686Z,3.13
2023-06-14T18:26:23.064Z,4.23
2023-06-14T18:28:50.329Z,4.17
2023-06-14T18:31:17.775Z,4.73
2023-06-14T18:33:44.848Z,3.43
2023-06-14T18:36:11.572Z,3.30
2023-06-14T18:38:38.244Z,3.67
2023-06-14T18:41:05.158Z,3.90
2023-06-14T18:43:34.680Z,3.90
2023-06-14T18:46:01.729Z,2.87
2023-06-14T18:48:28.511Z,2.57
2023-06-14T18:50:55.180Z,2.70
2023-06-14T18:53:22.585Z,4.70
2023-06-14T18:55:49.321Z,2.83
2023-06-14T18:58:17.546Z,2.47
2023-06-14T19:00:44.286Z,2.70
2023-06-14T19:03:11.166Z,3.70
2023-06-14T19:05:37.863Z,3.37
2023-06-14T19:08:04.693Z,7.13
2023-06-14T19:10:31.434Z,4.80
2023-06-14T19:12:58.150Z,4.53
2023-06-14T19:15:25.493Z,3.93
2023-06-14T19:17:56.596Z,3.67
2023-06-14T19:20:24.521Z,4.07
2023-06-14T19:22:51.146Z,2.57
2023-06-14T19:25:18.124Z,3.43
2023-06-14T19:27:49.148Z,4.53
2023-06-14T19:30:18.516Z,3.27
2023-06-14T19:32:45.982Z,3.43
2023-06-14T19:35:12.701Z,2.37
2023-06-14T19:37:40.862Z,3.00
2023-06-14T19:40:08.357Z,3.20
2023-06-14T19:42:35.520Z,5.10
2023-06-14T19:45:02.117Z,3.23
2023-06-14T19:47:28.786Z,4.47
2023-06-14T19:49:55.554Z,3.47
2023-06-14T19:52:24.587Z,3.00
2023-06-14T19:54:51.635Z,3.97
2023-06-14T19:57:18.883Z,2.23
2023-06-14T19:59:46.829Z,3.50
2023-06-14T20:02:13.499Z,3.10
2023-06-14T20:04:40.313Z,3.57
2023-06-14T20:07:07.763Z,4.70
2023-06-14T20:09:35.164Z,4.87
2023-06-14T20:12:02.600Z,2.53
2023-06-14T20:14:29.344Z,2.60
2023-06-14T20:16:57.157Z,4.13
2023-06-14T20:19:23.779Z,2.63
2023-06-14T20:21:50.833Z,2.40
2023-06-14T20:24:17.788Z,2.63
2023-06-14T20:26:44.729Z,2.37
2023-06-14T20:29:11.588Z,3.30
2023-06-14T20:31:38.393Z,3.10
2023-06-14T20:34:05.841Z,2.33
2023-06-14T20:36:33.423Z,5.83
2023-06-14T20:39:00.295Z,2.20
2023-06-14T20:41:27.284Z,4.40
2023-06-14T20:43:58.768Z,2.50
2023-06-14T20:46:29.488Z,3.00
2023-06-14T20:48:56.598Z,2.97
2023-06-14T20:51:23.349Z,3.00
2023-06-14T20:53:50.020Z,2.47
2023-06-14T20:56:17.146Z,2.40
2023-06-14T20:58:44.444Z,3.47
2023-06-14T21:01:11.340Z,4.73
2023-06-14T21:03:38.095Z,3.43
2023-06-14T21:06:06.830Z,3.57
2023-06-14T21:08:33.550Z,5.10
2023-06-14T21:11:00.463Z,4.60
2023-06-14T21:13:29.384Z,4.17
2023-06-14T21:15:56.144Z,3.43
2023-06-14T21:18:22.777Z,2.73
2023-06-14T21:20:51.210Z,4.33
2023-06-14T21:23:17.908Z,4.90
2023-06-14T21:25:44.710Z,3.03
2023-06-14T21:28:11.516Z,5.30
2023-06-14T21:30:38.152Z,2.97
2023-06-14T21:33:05.500Z,3.93
2023-06-14T21:35:32.437Z,5.07
2023-06-14T21:37:59.267Z,4.77
2023-06-14T21:40:26.194Z,3.83
2023-06-14T21:42:52.842Z,2.50
2023-06-14T21:45:19.593Z,3.87
2023-06-14T21:47:47.292Z,4.67
2023-06-14T21:50:14.290Z,5.17
2023-06-14T21:52:41.081Z,3.40
2023-06-14T21:55:08.064Z,3.87
2023-06-14T21:57:34.702Z,3.43
2023-06-14T22:00:01.445Z,2.73
2023-06-14T22:02:28.135Z,3.07
2023-06-14T22:04:55.065Z,3.17
2023-06-14T22:07:22.086Z,3.90
2023-06-14T22:09:50.088Z,3.87
2023-06-14T22:12:16.999Z,3.50
2023-06-14T22:14:47.977Z,6.23
2023-06-14T22:17:19.250Z,5.57
2023-06-14T22:19:51.659Z,3.23
2023-06-14T22:22:25.859Z,5.10
2023-06-14T22:24:54.020Z,5.03
2023-06-14T22:27:22.769Z,4.43
2023-06-14T22:29:50.432Z,4.13
2023-06-14T22:32:17.973Z,4.57
2023-06-14T22:34:45.392Z,3.50
2023-06-14T22:37:12.015Z,5.07
2023-06-14T22:39:38.756Z,4.53
2023-06-14T22:42:07.759Z,4.97
2023-06-14T22:44:35.606Z,3.80
2023-06-14T22:47:02.833Z,5.23
2023-06-14T22:49:32.217Z,9.23
2023-06-14T22:52:02.517Z,4.03
2023-06-14T22:54:33.340Z,3.87
2023-06-14T22:57:00.370Z,4.63
2023-06-14T22:59:28.882Z,6.47
2023-06-14T23:01:55.624Z,5.13
2023-06-14T23:04:23.936Z,3.73
2023-06-14T23:06:53.212Z,8.27
2023-06-14T23:09:21.147Z,4.83
2023-06-14T23:11:48.215Z,4.97
2023-06-14T23:14:15.252Z,5.80
2023-06-14T23:16:49.254Z,5.87
2023-06-14T23:19:18.757Z,7.50
2023-06-14T23:21:48.125Z,6.87
2023-06-14T23:24:15.815Z,5.20
2023-06-14T23:26:43.213Z,5.43
2023-06-14T23:29:09.913Z,3.33
2023-06-14T23:31:36.610Z,4.13
2023-06-14T23:34:03.313Z,5.33
2023-06-14T23:36:31.657Z,6.40
2023-06-14T23:39:01.264Z,3.80
2023-06-14T23:41:31.884Z,5.87
2023-06-14T23:44:01.488Z,7.07
2023-06-14T23:46:32.724Z,4.03
2023-06-14T23:49:01.048Z,4.83
2023-06-14T23:51:27.840Z,5.23
2023-06-14T23:53:56.205Z,6.80
2023-06-14T23:56:25.763Z,5.23
2023-06-14T23:58:53.696Z,5.33
